sensor_id;sensor_type;location;lat;lon;timestamp;temperature;humidity
52643;DHT22;38531;53.296;6.614;2023-07-20T00:00:52;15.60;99.90
52643;DHT22;38531;53.296;6.614;2023-07-20T00:03:20;15.60;99.90
52643;DHT22;38531;53.296;6.614;2023-07-20T00:05:49;15.60;99.90
52643;DHT22;38531;53.296;6.614;2023-07-20T00:08:18;15.60;99.90
52643;DHT22;38531;53.296;6.614;2023-07-20T00:10:44;15.60;99.90
52643;DHT22;38531;53.296;6.614;2023-07-20T00:13:13;15.60;99.90
52643;DHT22;38531;53.296;6.614;2023-07-20T00:15:41;15.50;99.90
52643;DHT22;38531;53.296;6.614;2023-07-20T00:18:07;15.50;99.90
52643;DHT22;38531;53.296;6.614;2023-07-20T00:20:33;15.50;99.90
52643;DHT22;38531;53.296;6.614;2023-07-20T00:22:58;15.50;99.90
52643;DHT22;38531;53.296;6.614;2023-07-20T00:25:25;15.50;99.90
52643;DHT22;38531;53.296;6.614;2023-07-20T00:27:51;15.50;99.90
52643;DHT22;38531;53.296;6.614;2023-07-20T00:30:17;15.40;99.90
52643;DHT22;38531;53.296;6.614;2023-07-20T00:32:44;15.40;99.90
52643;DHT22;38531;53.296;6.614;2023-07-20T00:35:10;15.40;99.90
52643;DHT22;38531;53.296;6.614;2023-07-20T00:37:39;15.40;99.90
52643;DHT22;38531;53.296;6.614;2023-07-20T00:40:05;15.40;99.90
52643;DHT22;38531;53.296;6.614;2023-07-20T00:42:33;15.30;99.90
52643;DHT22;38531;53.296;6.614;2023-07-20T00:44:59;15.30;99.90
52643;DHT22;38531;53.296;6.614;2023-07-20T00:47:26;15.30;99.90
52643;DHT22;38531;53.296;6.614;2023-07-20T00:49:52;15.30;99.90
52643;DHT22;38531;53.296;6.614;2023-07-20T00:52:20;15.20;99.90
52643;DHT22;38531;53.296;6.614;2023-07-20T00:54:47;15.10;99.90
52643;DHT22;38531;53.296;6.614;2023-07-20T00:57:20;15.10;99.90
52643;DHT22;38531;53.296;6.614;2023-07-20T00:59:46;14.90;99.90
52643;DHT22;38531;53.296;6.614;2023-07-20T01:02:11;15.00;99.90
52643;DHT22;38531;53.296;6.614;2023-07-20T01:04:37;14.90;99.90
52643;DHT22;38531;53.296;6.614;2023-07-20T01:07:12;14.90;99.90
52643;DHT22;38531;53.296;6.614;2023-07-20T01:12:27;14.80;99.90
52643;DHT22;38531;53.296;6.614;2023-07-20T01:14:55;14.80;99.90
52643;DHT22;38531;53.296;6.614;2023-07-20T01:17:22;14.70;99.90
52643;DHT22;38531;53.296;6.614;2023-07-20T01:19:49;14.70;99.90
52643;DHT22;38531;53.296;6.614;2023-07-20T01:25:34;14.60;99.90
52643;DHT22;38531;53.296;6.614;2023-07-20T01:28:20;14.50;99.90
52643;DHT22;38531;53.296;6.614;2023-07-20T01:33:25;14.40;99.90
52643;DHT22;38531;53.296;6.614;2023-07-20T01:35:55;14.40;99.90
52643;DHT22;38531;53.296;6.614;2023-07-20T01:38:23;14.20;99.90
52643;DHT22;38531;53.296;6.614;2023-07-20T01:40:49;14.20;99.90
52643;DHT22;38531;53.296;6.614;2023-07-20T01:43:16;14.20;99.90
52643;DHT22;38531;53.296;6.614;2023-07-20T01:45:42;14.10;99.90
52643;DHT22;38531;53.296;6.614;2023-07-20T01:48:07;14.10;99.90
52643;DHT22;38531;53.296;6.614;2023-07-20T01:50:33;14.10;99.90
52643;DHT22;38531;53.296;6.614;2023-07-20T01:53:00;14.00;99.90
52643;DHT22;38531;53.296;6.614;2023-07-20T01:55:26;14.00;99.90
52643;DHT22;38531;53.296;6.614;2023-07-20T01:57:53;13.90;99.90
52643;DHT22;38531;53.296;6.614;2023-07-20T02:00:18;13.90;99.90
52643;DHT22;38531;53.296;6.614;2023-07-20T02:02:50;13.80;99.90
52643;DHT22;38531;53.296;6.614;2023-07-20T02:05:16;13.80;99.90
52643;DHT22;38531;53.296;6.614;2023-07-20T02:07:42;13.80;99.90
52643;DHT22;38531;53.296;6.614;2023-07-20T02:10:08;13.80;99.90
52643;DHT22;38531;53.296;6.614;2023-07-20T02:12:34;13.70;99.90
52643;DHT22;38531;53.296;6.614;2023-07-20T02:15:01;13.70;99.90
52643;DHT22;38531;53.296;6.614;2023-07-20T02:17:27;13.70;99.90
52643;DHT22;38531;53.296;6.614;2023-07-20T02:19:53;13.70;99.90
52643;DHT22;38531;53.296;6.614;2023-07-20T02:22:19;13.70;99.90
52643;DHT22;38531;53.296;6.614;2023-07-20T02:24:44;13.60;99.90
52643;DHT22;38531;53.296;6.614;2023-07-20T02:27:10;13.60;99.90
52643;DHT22;38531;53.296;6.614;2023-07-20T02:29:36;13.60;99.90
52643;DHT22;38531;53.296;6.614;2023-07-20T02:32:02;13.60;99.90
52643;DHT22;38531;53.296;6.614;2023-07-20T02:34:27;13.50;99.90
52643;DHT22;38531;53.296;6.614;2023-07-20T02:36:54;13.50;99.90
52643;DHT22;38531;53.296;6.614;2023-07-20T02:39:22;13.50;99.90
52643;DHT22;38531;53.296;6.614;2023-07-20T02:41:48;13.40;99.90
52643;DHT22;38531;53.296;6.614;2023-07-20T02:44:16;13.40;99.90
52643;DHT22;38531;53.296;6.614;2023-07-20T02:46:44;13.30;99.90
52643;DHT22;38531;53.296;6.614;2023-07-20T02:49:10;13.30;99.90
52643;DHT22;38531;53.296;6.614;2023-07-20T02:51:36;13.30;99.90
52643;DHT22;38531;53.296;6.614;2023-07-20T02:54:02;13.20;99.90
52643;DHT22;38531;53.296;6.614;2023-07-20T02:56:29;13.00;99.90
52643;DHT22;38531;53.296;6.614;2023-07-20T02:58:54;13.10;99.90
52643;DHT22;38531;53.296;6.614;2023-07-20T03:01:20;13.10;99.90
52643;DHT22;38531;53.296;6.614;2023-07-20T03:03:46;13.00;99.90
52643;DHT22;38531;53.296;6.614;2023-07-20T03:06:14;13.00;99.90
52643;DHT22;38531;53.296;6.614;2023-07-20T03:08:41;13.00;99.90
52643;DHT22;38531;53.296;6.614;2023-07-20T03:11:07;12.90;99.90
52643;DHT22;38531;53.296;6.614;2023-07-20T03:13:33;12.90;99.90
52643;DHT22;38531;53.296;6.614;2023-07-20T03:15:59;12.90;99.90
52643;DHT22;38531;53.296;6.614;2023-07-20T03:18:24;12.80;99.90
52643;DHT22;38531;53.296;6.614;2023-07-20T03:20:50;12.80;99.90
52643;DHT22;38531;53.296;6.614;2023-07-20T03:23:16;12.70;99.90
52643;DHT22;38531;53.296;6.614;2023-07-20T03:25:42;12.70;99.90
52643;DHT22;38531;53.296;6.614;2023-07-20T03:28:07;12.70;99.90
52643;DHT22;38531;53.296;6.614;2023-07-20T03:30:34;12.60;99.90
52643;DHT22;38531;53.296;6.614;2023-07-20T03:33:00;12.60;99.90
52643;DHT22;38531;53.296;6.614;2023-07-20T03:35:26;12.60;99.90
52643;DHT22;38531;53.296;6.614;2023-07-20T03:37:52;12.60;99.90
52643;DHT22;38531;53.296;6.614;2023-07-20T03:40:17;12.60;99.90
52643;DHT22;38531;53.296;6.614;2023-07-20T03:42:43;12.50;99.90
52643;DHT22;38531;53.296;6.614;2023-07-20T03:45:09;12.50;99.90
52643;DHT22;38531;53.296;6.614;2023-07-20T03:47:35;12.50;99.90
52643;DHT22;38531;53.296;6.614;2023-07-20T03:50:01;12.60;99.90
52643;DHT22;38531;53.296;6.614;2023-07-20T03:52:26;12.60;99.90
52643;DHT22;38531;53.296;6.614;2023-07-20T03:54:52;12.60;99.90
52643;DHT22;38531;53.296;6.614;2023-07-20T03:57:18;12.60;99.90
52643;DHT22;38531;53.296;6.614;2023-07-20T03:59:48;12.60;99.90
52643;DHT22;38531;53.296;6.614;2023-07-20T04:02:14;12.60;99.90
52643;DHT22;38531;53.296;6.614;2023-07-20T04:04:40;12.60;99.90
52643;DHT22;38531;53.296;6.614;2023-07-20T04:07:06;12.70;99.90
52643;DHT22;38531;53.296;6.614;2023-07-20T04:09:32;12.70;99.90
52643;DHT22;38531;53.296;6.614;2023-07-20T04:11:58;12.70;99.90
52643;DHT22;38531;53.296;6.614;2023-07-20T04:14:25;12.60;99.90
52643;DHT22;38531;53.296;6.614;2023-07-20T04:16:51;12.70;99.90
52643;DHT22;38531;53.296;6.614;2023-07-20T04:19:17;12.70;99.90
52643;DHT22;38531;53.296;6.614;2023-07-20T04:21:43;12.80;99.90
52643;DHT22;38531;53.296;6.614;2023-07-20T04:24:09;12.80;99.90
52643;DHT22;38531;53.296;6.614;2023-07-20T04:26:35;12.80;99.90
52643;DHT22;38531;53.296;6.614;2023-07-20T04:29:02;12.90;99.90
52643;DHT22;38531;53.296;6.614;2023-07-20T04:31:29;12.90;99.90
52643;DHT22;38531;53.296;6.614;2023-07-20T04:33:57;13.00;99.90
52643;DHT22;38531;53.296;6.614;2023-07-20T04:36:25;13.00;99.90
52643;DHT22;38531;53.296;6.614;2023-07-20T04:38:51;13.00;99.90
52643;DHT22;38531;53.296;6.614;2023-07-20T04:41:17;13.00;99.90
52643;DHT22;38531;53.296;6.614;2023-07-20T04:43:43;13.00;99.90
52643;DHT22;38531;53.296;6.614;2023-07-20T04:46:12;13.00;99.90
52643;DHT22;38531;53.296;6.614;2023-07-20T04:48:41;13.10;99.90
52643;DHT22;38531;53.296;6.614;2023-07-20T04:51:07;13.00;99.90
52643;DHT22;38531;53.296;6.614;2023-07-20T04:53:32;13.10;99.90
52643;DHT22;38531;53.296;6.614;2023-07-20T04:55:58;13.10;99.90
52643;DHT22;38531;53.296;6.614;2023-07-20T04:58:24;13.20;99.90
52643;DHT22;38531;53.296;6.614;2023-07-20T05:00:51;13.20;99.90
52643;DHT22;38531;53.296;6.614;2023-07-20T05:03:17;13.30;99.90
52643;DHT22;38531;53.296;6.614;2023-07-20T05:05:43;13.30;99.90
52643;DHT22;38531;53.296;6.614;2023-07-20T05:08:09;13.40;99.90
52643;DHT22;38531;53.296;6.614;2023-07-20T05:10:35;13.40;99.90
52643;DHT22;38531;53.296;6.614;2023-07-20T05:13:01;13.50;99.90
52643;DHT22;38531;53.296;6.614;2023-07-20T05:15:26;13.50;99.90
52643;DHT22;38531;53.296;6.614;2023-07-20T05:17:52;13.60;99.90
52643;DHT22;38531;53.296;6.614;2023-07-20T05:20:18;13.70;99.90
52643;DHT22;38531;53.296;6.614;2023-07-20T05:22:44;13.80;99.90
52643;DHT22;38531;53.296;6.614;2023-07-20T05:25:10;14.00;99.90
52643;DHT22;38531;53.296;6.614;2023-07-20T05:27:40;14.00;99.90
52643;DHT22;38531;53.296;6.614;2023-07-20T05:30:06;14.10;99.90
52643;DHT22;38531;53.296;6.614;2023-07-20T05:32:33;14.20;99.90
52643;DHT22;38531;53.296;6.614;2023-07-20T05:34:59;14.20;99.90
52643;DHT22;38531;53.296;6.614;2023-07-20T05:41:05;14.40;99.90
52643;DHT22;38531;53.296;6.614;2023-07-20T05:43:35;14.50;99.90
52643;DHT22;38531;53.296;6.614;2023-07-20T05:46:01;14.70;99.90
52643;DHT22;38531;53.296;6.614;2023-07-20T05:48:27;14.80;99.90
52643;DHT22;38531;53.296;6.614;2023-07-20T05:50:53;14.90;99.90
52643;DHT22;38531;53.296;6.614;2023-07-20T05:53:19;15.00;99.90
52643;DHT22;38531;53.296;6.614;2023-07-20T05:55:44;15.10;99.90
52643;DHT22;38531;53.296;6.614;2023-07-20T05:58:16;15.30;99.90
52643;DHT22;38531;53.296;6.614;2023-07-20T06:00:42;15.40;99.90
52643;DHT22;38531;53.296;6.614;2023-07-20T06:03:08;15.50;99.90
52643;DHT22;38531;53.296;6.614;2023-07-20T06:05:34;15.60;99.90
52643;DHT22;38531;53.296;6.614;2023-07-20T06:08:00;15.70;99.90
52643;DHT22;38531;53.296;6.614;2023-07-20T06:10:26;15.90;99.90
52643;DHT22;38531;53.296;6.614;2023-07-20T06:12:52;16.00;99.90
52643;DHT22;38531;53.296;6.614;2023-07-20T06:15:28;16.10;99.90
52643;DHT22;38531;53.296;6.614;2023-07-20T06:17:55;16.20;99.90
52643;DHT22;38531;53.296;6.614;2023-07-20T06:20:22;16.50;99.90
52643;DHT22;38531;53.296;6.614;2023-07-20T06:22:48;16.50;99.90
52643;DHT22;38531;53.296;6.614;2023-07-20T06:25:13;16.60;99.90
52643;DHT22;38531;53.296;6.614;2023-07-20T06:27:39;16.60;99.90
52643;DHT22;38531;53.296;6.614;2023-07-20T06:30:05;16.60;99.90
52643;DHT22;38531;53.296;6.614;2023-07-20T06:32:31;16.60;99.90
52643;DHT22;38531;53.296;6.614;2023-07-20T06:34:58;16.60;99.90
52643;DHT22;38531;53.296;6.614;2023-07-20T06:37:23;16.60;99.90
52643;DHT22;38531;53.296;6.614;2023-07-20T06:39:49;16.80;99.90
52643;DHT22;38531;53.296;6.614;2023-07-20T06:42:15;16.80;99.90
52643;DHT22;38531;53.296;6.614;2023-07-20T06:44:41;16.90;99.90
52643;DHT22;38531;53.296;6.614;2023-07-20T06:47:09;17.00;99.90
52643;DHT22;38531;53.296;6.614;2023-07-20T06:49:37;17.10;99.90
52643;DHT22;38531;53.296;6.614;2023-07-20T06:52:03;17.30;99.90
52643;DHT22;38531;53.296;6.614;2023-07-20T06:54:29;17.40;99.90
52643;DHT22;38531;53.296;6.614;2023-07-20T06:56:55;17.50;99.90
52643;DHT22;38531;53.296;6.614;2023-07-20T06:59:21;17.60;99.90
52643;DHT22;38531;53.296;6.614;2023-07-20T07:01:47;17.80;99.90
52643;DHT22;38531;53.296;6.614;2023-07-20T07:04:12;17.90;99.90
52643;DHT22;38531;53.296;6.614;2023-07-20T07:06:38;18.00;99.90
52643;DHT22;38531;53.296;6.614;2023-07-20T07:09:04;18.20;99.90
52643;DHT22;38531;53.296;6.614;2023-07-20T07:11:31;18.10;99.90
52643;DHT22;38531;53.296;6.614;2023-07-20T07:13:56;17.90;99.90
52643;DHT22;38531;53.296;6.614;2023-07-20T07:16:22;18.00;99.90
52643;DHT22;38531;53.296;6.614;2023-07-20T07:18:50;17.90;99.90
52643;DHT22;38531;53.296;6.614;2023-07-20T07:21:16;17.80;99.90
52643;DHT22;38531;53.296;6.614;2023-07-20T07:23:43;17.90;99.90
52643;DHT22;38531;53.296;6.614;2023-07-20T07:26:09;18.00;99.90
52643;DHT22;38531;53.296;6.614;2023-07-20T07:28:36;18.10;99.90
52643;DHT22;38531;53.296;6.614;2023-07-20T07:31:04;18.20;99.90
52643;DHT22;38531;53.296;6.614;2023-07-20T07:33:31;18.20;99.90
52643;DHT22;38531;53.296;6.614;2023-07-20T07:35:57;18.50;99.90
52643;DHT22;38531;53.296;6.614;2023-07-20T07:38:23;18.50;99.90
52643;DHT22;38531;53.296;6.614;2023-07-20T07:40:49;18.60;99.90
52643;DHT22;38531;53.296;6.614;2023-07-20T07:43:15;18.70;99.90
52643;DHT22;38531;53.296;6.614;2023-07-20T07:45:40;18.90;99.90
52643;DHT22;38531;53.296;6.614;2023-07-20T07:48:06;18.90;99.90
52643;DHT22;38531;53.296;6.614;2023-07-20T07:50:33;18.80;99.90
52643;DHT22;38531;53.296;6.614;2023-07-20T07:52:59;18.80;99.90
52643;DHT22;38531;53.296;6.614;2023-07-20T07:55:25;19.00;99.90
52643;DHT22;38531;53.296;6.614;2023-07-20T07:57:54;19.30;99.90
52643;DHT22;38531;53.296;6.614;2023-07-20T08:00:20;19.30;99.90
52643;DHT22;38531;53.296;6.614;2023-07-20T08:02:46;19.40;99.90
52643;DHT22;38531;53.296;6.614;2023-07-20T08:05:13;19.20;99.90
52643;DHT22;38531;53.296;6.614;2023-07-20T08:07:39;19.00;99.90
52643;DHT22;38531;53.296;6.614;2023-07-20T08:10:06;18.90;99.90
52643;DHT22;38531;53.296;6.614;2023-07-20T08:12:32;18.80;99.90
52643;DHT22;38531;53.296;6.614;2023-07-20T08:14:58;18.90;99.90
52643;DHT22;38531;53.296;6.614;2023-07-20T08:17:23;19.10;99.90
52643;DHT22;38531;53.296;6.614;2023-07-20T08:19:49;19.10;99.90
52643;DHT22;38531;53.296;6.614;2023-07-20T08:22:15;19.10;99.90
52643;DHT22;38531;53.296;6.614;2023-07-20T08:24:42;19.30;99.90
52643;DHT22;38531;53.296;6.614;2023-07-20T08:27:09;19.50;99.90
52643;DHT22;38531;53.296;6.614;2023-07-20T08:29:35;19.80;99.90
52643;DHT22;38531;53.296;6.614;2023-07-20T08:32:01;19.90;99.90
52643;DHT22;38531;53.296;6.614;2023-07-20T08:34:27;19.90;99.90
52643;DHT22;38531;53.296;6.614;2023-07-20T08:36:53;19.60;99.90
52643;DHT22;38531;53.296;6.614;2023-07-20T08:39:18;19.40;99.90
52643;DHT22;38531;53.296;6.614;2023-07-20T08:41:44;19.50;99.90
52643;DHT22;38531;53.296;6.614;2023-07-20T08:44:10;19.70;99.90
52643;DHT22;38531;53.296;6.614;2023-07-20T08:46:40;19.80;99.90
52643;DHT22;38531;53.296;6.614;2023-07-20T08:49:06;20.00;99.90
52643;DHT22;38531;53.296;6.614;2023-07-20T08:51:33;20.20;99.90
52643;DHT22;38531;53.296;6.614;2023-07-20T08:54:02;20.40;99.90
52643;DHT22;38531;53.296;6.614;2023-07-20T08:56:27;20.50;99.90
52643;DHT22;38531;53.296;6.614;2023-07-20T08:58:55;20.70;99.90
52643;DHT22;38531;53.296;6.614;2023-07-20T09:01:22;20.60;99.90
52643;DHT22;38531;53.296;6.614;2023-07-20T09:03:48;20.70;99.90
52643;DHT22;38531;53.296;6.614;2023-07-20T09:06:14;20.90;99.90
52643;DHT22;38531;53.296;6.614;2023-07-20T09:08:40;21.10;99.90
52643;DHT22;38531;53.296;6.614;2023-07-20T09:11:07;21.20;99.90
52643;DHT22;38531;53.296;6.614;2023-07-20T09:13:33;21.10;99.90
52643;DHT22;38531;53.296;6.614;2023-07-20T09:15:59;21.00;99.80
52643;DHT22;38531;53.296;6.614;2023-07-20T09:18:30;21.10;99.70
52643;DHT22;38531;53.296;6.614;2023-07-20T09:21:04;21.10;99.90
52643;DHT22;38531;53.296;6.614;2023-07-20T09:23:37;21.10;99.60
52643;DHT22;38531;53.296;6.614;2023-07-20T09:26:11;21.20;99.90
52643;DHT22;38531;53.296;6.614;2023-07-20T09:28:54;21.60;98.00
52643;DHT22;38531;53.296;6.614;2023-07-20T09:31:23;21.70;98.60
52643;DHT22;38531;53.296;6.614;2023-07-20T09:33:51;22.00;97.70
52643;DHT22;38531;53.296;6.614;2023-07-20T09:36:18;21.80;97.40
52643;DHT22;38531;53.296;6.614;2023-07-20T09:38:43;21.60;97.30
52643;DHT22;38531;53.296;6.614;2023-07-20T09:41:14;21.60;98.80
52643;DHT22;38531;53.296;6.614;2023-07-20T09:43:41;21.40;97.30
52643;DHT22;38531;53.296;6.614;2023-07-20T09:46:07;21.30;97.40
52643;DHT22;38531;53.296;6.614;2023-07-20T09:48:32;21.30;98.90
52643;DHT22;38531;53.296;6.614;2023-07-20T09:50:58;21.50;98.10
52643;DHT22;38531;53.296;6.614;2023-07-20T09:53:25;21.60;98.90
52643;DHT22;38531;53.296;6.614;2023-07-20T09:55:52;21.90;97.70
52643;DHT22;38531;53.296;6.614;2023-07-20T09:58:19;21.90;97.40
52643;DHT22;38531;53.296;6.614;2023-07-20T10:00:46;21.70;96.40
52643;DHT22;38531;53.296;6.614;2023-07-20T10:03:21;21.50;99.10
52643;DHT22;38531;53.296;6.614;2023-07-20T10:06:00;21.60;97.90
52643;DHT22;38531;53.296;6.614;2023-07-20T10:08:30;21.80;98.30
52643;DHT22;38531;53.296;6.614;2023-07-20T10:10:59;22.10;98.10
52643;DHT22;38531;53.296;6.614;2023-07-20T10:13:27;22.30;96.60
52643;DHT22;38531;53.296;6.614;2023-07-20T10:16:07;22.20;96.80
52643;DHT22;38531;53.296;6.614;2023-07-20T10:18:42;22.10;96.90
52643;DHT22;38531;53.296;6.614;2023-07-20T10:21:17;21.90;97.20
52643;DHT22;38531;53.296;6.614;2023-07-20T10:23:43;22.00;96.10
52643;DHT22;38531;53.296;6.614;2023-07-20T10:26:09;21.60;96.40
52643;DHT22;38531;53.296;6.614;2023-07-20T10:28:36;21.40;96.70
52643;DHT22;38531;53.296;6.614;2023-07-20T10:31:02;21.50;96.70
52643;DHT22;38531;53.296;6.614;2023-07-20T10:33:31;21.70;97.70
52643;DHT22;38531;53.296;6.614;2023-07-20T10:36:01;21.80;96.70
52643;DHT22;38531;53.296;6.614;2023-07-20T10:38:44;22.00;96.80
52643;DHT22;38531;53.296;6.614;2023-07-20T10:41:22;22.20;96.10
52643;DHT22;38531;53.296;6.614;2023-07-20T10:43:50;22.40;96.00
52643;DHT22;38531;53.296;6.614;2023-07-20T10:49:03;22.60;96.40
52643;DHT22;38531;53.296;6.614;2023-07-20T10:51:43;23.00;94.80
52643;DHT22;38531;53.296;6.614;2023-07-20T10:56:49;23.00;95.50
52643;DHT22;38531;53.296;6.614;2023-07-20T11:01:57;22.70;95.60
52643;DHT22;38531;53.296;6.614;2023-07-20T11:04:47;22.80;94.30
52643;DHT22;38531;53.296;6.614;2023-07-20T11:07:40;22.90;95.40
52643;DHT22;38531;53.296;6.614;2023-07-20T11:10:17;23.00;94.90
52643;DHT22;38531;53.296;6.614;2023-07-20T11:13:24;23.20;93.40
52643;DHT22;38531;53.296;6.614;2023-07-20T11:18:29;23.00;94.60
52643;DHT22;38531;53.296;6.614;2023-07-20T11:20:57;22.50;94.50
52643;DHT22;38531;53.296;6.614;2023-07-20T11:23:29;22.50;95.80
52643;DHT22;38531;53.296;6.614;2023-07-20T11:26:39;22.40;94.60
52643;DHT22;38531;53.296;6.614;2023-07-20T11:29:15;22.80;95.30
52643;DHT22;38531;53.296;6.614;2023-07-20T11:31:53;22.90;94.30
52643;DHT22;38531;53.296;6.614;2023-07-20T11:34:20;23.00;95.50
52643;DHT22;38531;53.296;6.614;2023-07-20T11:36:49;23.10;95.90
52643;DHT22;38531;53.296;6.614;2023-07-20T11:39:19;22.80;93.90
52643;DHT22;38531;53.296;6.614;2023-07-20T11:41:52;23.10;93.50
52643;DHT22;38531;53.296;6.614;2023-07-20T11:44:19;22.90;93.30
52643;DHT22;38531;53.296;6.614;2023-07-20T11:46:50;23.00;93.80
52643;DHT22;38531;53.296;6.614;2023-07-20T11:49:16;22.80;93.10
52643;DHT22;38531;53.296;6.614;2023-07-20T11:51:41;22.70;94.40
52643;DHT22;38531;53.296;6.614;2023-07-20T11:54:08;23.00;95.00
52643;DHT22;38531;53.296;6.614;2023-07-20T11:56:34;23.00;95.00
52643;DHT22;38531;53.296;6.614;2023-07-20T11:59:00;23.10;94.10
52643;DHT22;38531;53.296;6.614;2023-07-20T12:01:29;23.20;93.50
52643;DHT22;38531;53.296;6.614;2023-07-20T12:04:01;23.10;93.70
52643;DHT22;38531;53.296;6.614;2023-07-20T12:06:30;23.10;92.40
52643;DHT22;38531;53.296;6.614;2023-07-20T12:08:59;23.30;93.10
52643;DHT22;38531;53.296;6.614;2023-07-20T12:11:35;23.50;93.10
52643;DHT22;38531;53.296;6.614;2023-07-20T12:14:02;23.90;92.90
52643;DHT22;38531;53.296;6.614;2023-07-20T12:16:28;23.70;93.90
52643;DHT22;38531;53.296;6.614;2023-07-20T12:19:00;23.70;93.90
52643;DHT22;38531;53.296;6.614;2023-07-20T12:21:26;23.90;93.20
52643;DHT22;38531;53.296;6.614;2023-07-20T12:23:52;24.00;92.90
52643;DHT22;38531;53.296;6.614;2023-07-20T12:26:17;24.30;92.50
52643;DHT22;38531;53.296;6.614;2023-07-20T12:28:45;24.10;92.10
52643;DHT22;38531;53.296;6.614;2023-07-20T12:31:11;24.30;91.90
52643;DHT22;38531;53.296;6.614;2023-07-20T12:33:39;24.40;90.70
52643;DHT22;38531;53.296;6.614;2023-07-20T12:36:05;23.90;91.40
52643;DHT22;38531;53.296;6.614;2023-07-20T12:38:31;23.80;91.80
52643;DHT22;38531;53.296;6.614;2023-07-20T12:41:00;24.00;92.60
52643;DHT22;38531;53.296;6.614;2023-07-20T12:43:26;23.50;92.20
52643;DHT22;38531;53.296;6.614;2023-07-20T12:45:52;23.50;93.30
52643;DHT22;38531;53.296;6.614;2023-07-20T12:48:18;23.70;92.40
52643;DHT22;38531;53.296;6.614;2023-07-20T12:50:44;23.80;91.10
52643;DHT22;38531;53.296;6.614;2023-07-20T12:53:09;23.50;91.70
52643;DHT22;38531;53.296;6.614;2023-07-20T12:55:35;23.10;92.10
52643;DHT22;38531;53.296;6.614;2023-07-20T12:58:01;22.90;93.50
52643;DHT22;38531;53.296;6.614;2023-07-20T13:00:27;23.00;93.70
52643;DHT22;38531;53.296;6.614;2023-07-20T13:02:52;23.00;94.00
52643;DHT22;38531;53.296;6.614;2023-07-20T13:05:18;23.20;93.10
52643;DHT22;38531;53.296;6.614;2023-07-20T13:07:44;23.10;94.20
52643;DHT22;38531;53.296;6.614;2023-07-20T13:10:11;23.10;93.70
52643;DHT22;38531;53.296;6.614;2023-07-20T13:12:37;23.20;93.80
52643;DHT22;38531;53.296;6.614;2023-07-20T13:15:05;22.80;93.10
52643;DHT22;38531;53.296;6.614;2023-07-20T13:17:35;22.80;93.50
52643;DHT22;38531;53.296;6.614;2023-07-20T13:20:02;22.90;92.10
52643;DHT22;38531;53.296;6.614;2023-07-20T13:22:30;22.60;93.30
52643;DHT22;38531;53.296;6.614;2023-07-20T13:24:56;22.40;94.10
52643;DHT22;38531;53.296;6.614;2023-07-20T13:27:22;22.30;94.70
52643;DHT22;38531;53.296;6.614;2023-07-20T13:29:48;22.20;94.30
52643;DHT22;38531;53.296;6.614;2023-07-20T13:32:14;22.10;94.50
52643;DHT22;38531;53.296;6.614;2023-07-20T13:34:40;22.10;94.30
52643;DHT22;38531;53.296;6.614;2023-07-20T13:37:06;22.20;94.70
52643;DHT22;38531;53.296;6.614;2023-07-20T13:39:32;22.10;94.00
52643;DHT22;38531;53.296;6.614;2023-07-20T13:41:58;22.00;94.90
52643;DHT22;38531;53.296;6.614;2023-07-20T13:44:36;22.10;95.30
52643;DHT22;38531;53.296;6.614;2023-07-20T13:47:03;22.00;93.90
52643;DHT22;38531;53.296;6.614;2023-07-20T13:49:58;21.90;94.40
52643;DHT22;38531;53.296;6.614;2023-07-20T13:52:28;21.90;94.20
52643;DHT22;38531;53.296;6.614;2023-07-20T13:54:54;22.00;95.40
52643;DHT22;38531;53.296;6.614;2023-07-20T13:57:20;22.10;95.10
52643;DHT22;38531;53.296;6.614;2023-07-20T13:59:45;22.20;94.90
52643;DHT22;38531;53.296;6.614;2023-07-20T14:02:31;22.20;94.50
52643;DHT22;38531;53.296;6.614;2023-07-20T14:05:09;22.10;96.20
52643;DHT22;38531;53.296;6.614;2023-07-20T14:07:35;22.20;94.60
52643;DHT22;38531;53.296;6.614;2023-07-20T14:10:01;22.10;94.20
52643;DHT22;38531;53.296;6.614;2023-07-20T14:12:27;21.90;94.90
52643;DHT22;38531;53.296;6.614;2023-07-20T14:14:54;21.90;95.20
52643;DHT22;38531;53.296;6.614;2023-07-20T14:17:21;21.90;95.00
52643;DHT22;38531;53.296;6.614;2023-07-20T14:19:47;21.60;95.60
52643;DHT22;38531;53.296;6.614;2023-07-20T14:29:59;21.80;95.20
52643;DHT22;38531;53.296;6.614;2023-07-20T14:32:38;21.60;95.80
52643;DHT22;38531;53.296;6.614;2023-07-20T14:35:06;21.40;94.90
52643;DHT22;38531;53.296;6.614;2023-07-20T14:37:35;21.40;95.50
52643;DHT22;38531;53.296;6.614;2023-07-20T14:40:27;21.60;95.80
52643;DHT22;38531;53.296;6.614;2023-07-20T14:42:58;21.60;95.80
52643;DHT22;38531;53.296;6.614;2023-07-20T14:45:34;21.50;95.50
52643;DHT22;38531;53.296;6.614;2023-07-20T14:48:05;21.30;95.80
52643;DHT22;38531;53.296;6.614;2023-07-20T14:50:31;21.70;96.20
52643;DHT22;38531;53.296;6.614;2023-07-20T14:52:57;22.00;95.30
52643;DHT22;38531;53.296;6.614;2023-07-20T14:55:23;22.30;96.00
52643;DHT22;38531;53.296;6.614;2023-07-20T15:00:59;23.40;95.50
52643;DHT22;38531;53.296;6.614;2023-07-20T15:07:31;23.10;94.70
52643;DHT22;38531;53.296;6.614;2023-07-20T15:28:23;22.80;94.50
52643;DHT22;38531;53.296;6.614;2023-07-20T15:30:49;22.90;94.50
52643;DHT22;38531;53.296;6.614;2023-07-20T15:33:36;23.30;94.20
52643;DHT22;38531;53.296;6.614;2023-07-20T15:39:04;23.30;93.20
52643;DHT22;38531;53.296;6.614;2023-07-20T15:45:23;22.90;94.20
52643;DHT22;38531;53.296;6.614;2023-07-20T15:47:59;23.30;94.60
52643;DHT22;38531;53.296;6.614;2023-07-20T15:50:25;23.80;94.70
52643;DHT22;38531;53.296;6.614;2023-07-20T16:15:39;23.50;92.60
52643;DHT22;38531;53.296;6.614;2023-07-20T16:45:47;23.20;93.10
52643;DHT22;38531;53.296;6.614;2023-07-20T16:59:20;22.30;93.90
52643;DHT22;38531;53.296;6.614;2023-07-20T17:15:28;22.10;93.80
52643;DHT22;38531;53.296;6.614;2023-07-20T17:45:21;20.80;95.50
52643;DHT22;38531;53.296;6.614;2023-07-20T18:06:21;20.00;97.70
52643;DHT22;38531;53.296;6.614;2023-07-20T18:28:30;19.20;99.10
52643;DHT22;38531;53.296;6.614;2023-07-20T18:31:03;19.10;99.40
52643;DHT22;38531;53.296;6.614;2023-07-20T18:33:32;19.20;99.30
52643;DHT22;38531;53.296;6.614;2023-07-20T18:36:00;19.10;99.60
52643;DHT22;38531;53.296;6.614;2023-07-20T18:38:29;19.10;99.80
52643;DHT22;38531;53.296;6.614;2023-07-20T18:44:04;19.00;99.90
52643;DHT22;38531;53.296;6.614;2023-07-20T18:49:23;18.80;99.90
52643;DHT22;38531;53.296;6.614;2023-07-20T18:51:57;18.70;99.90
52643;DHT22;38531;53.296;6.614;2023-07-20T19:01:58;18.50;99.90
52643;DHT22;38531;53.296;6.614;2023-07-20T19:04:44;18.40;99.90
52643;DHT22;38531;53.296;6.614;2023-07-20T19:07:29;18.40;99.90
52643;DHT22;38531;53.296;6.614;2023-07-20T19:19:24;18.10;99.90
52643;DHT22;38531;53.296;6.614;2023-07-20T19:21:51;18.00;99.90